sensor_id;sensor_type;location;lat;lon;timestamp;temperature;humidity
59660;DHT22;45534;52.690;6.268;2023-07-02T00:00:04;15.90;99.90
59660;DHT22;45534;52.690;6.268;2023-07-02T00:02:31;15.90;99.90
59660;DHT22;45534;52.690;6.268;2023-07-02T00:04:56;15.90;99.90
59660;DHT22;45534;52.690;6.268;2023-07-02T00:07:22;16.00;99.90
59660;DHT22;45534;52.690;6.268;2023-07-02T00:09:48;16.00;99.90
59660;DHT22;45534;52.690;6.268;2023-07-02T00:12:14;16.00;99.90
59660;DHT22;45534;52.690;6.268;2023-07-02T00:14:39;16.00;99.90
59660;DHT22;45534;52.690;6.268;2023-07-02T00:17:05;16.10;99.90
59660;DHT22;45534;52.690;6.268;2023-07-02T00:19:31;16.10;99.90
59660;DHT22;45534;52.690;6.268;2023-07-02T00:21:57;16.10;99.90
59660;DHT22;45534;52.690;6.268;2023-07-02T00:24:23;16.10;99.90
59660;DHT22;45534;52.690;6.268;2023-07-02T00:26:49;16.10;99.90
59660;DHT22;45534;52.690;6.268;2023-07-02T00:29:15;16.10;99.90
59660;DHT22;45534;52.690;6.268;2023-07-02T00:31:41;16.10;99.90
59660;DHT22;45534;52.690;6.268;2023-07-02T00:34:06;16.10;99.90
59660;DHT22;45534;52.690;6.268;2023-07-02T00:36:32;16.00;99.90
59660;DHT22;45534;52.690;6.268;2023-07-02T00:38:58;16.10;99.90
59660;DHT22;45534;52.690;6.268;2023-07-02T00:41:24;16.00;99.90
59660;DHT22;45534;52.690;6.268;2023-07-02T00:43:50;16.00;99.90
59660;DHT22;45534;52.690;6.268;2023-07-02T00:46:20;15.90;99.90
59660;DHT22;45534;52.690;6.268;2023-07-02T00:48:54;15.80;99.90
59660;DHT22;45534;52.690;6.268;2023-07-02T00:51:24;15.80;99.90
59660;DHT22;45534;52.690;6.268;2023-07-02T00:53:52;15.80;99.90
59660;DHT22;45534;52.690;6.268;2023-07-02T00:56:19;15.80;99.90
59660;DHT22;45534;52.690;6.268;2023-07-02T00:58:46;15.80;99.90
59660;DHT22;45534;52.690;6.268;2023-07-02T01:01:24;15.80;99.90
59660;DHT22;45534;52.690;6.268;2023-07-02T01:04:01;15.70;99.90
59660;DHT22;45534;52.690;6.268;2023-07-02T01:06:32;15.70;99.90
59660;DHT22;45534;52.690;6.268;2023-07-02T01:09:00;15.60;99.90
59660;DHT22;45534;52.690;6.268;2023-07-02T01:11:50;15.50;99.90
59660;DHT22;45534;52.690;6.268;2023-07-02T01:14:31;15.40;99.90
59660;DHT22;45534;52.690;6.268;2023-07-02T01:16:59;15.30;99.90
59660;DHT22;45534;52.690;6.268;2023-07-02T01:19:52;15.30;99.90
59660;DHT22;45534;52.690;6.268;2023-07-02T01:22:20;15.20;99.90
59660;DHT22;45534;52.690;6.268;2023-07-02T01:24:47;15.10;99.90
59660;DHT22;45534;52.690;6.268;2023-07-02T01:27:14;15.10;99.90
59660;DHT22;45534;52.690;6.268;2023-07-02T01:29:40;15.00;99.90
59660;DHT22;45534;52.690;6.268;2023-07-02T01:32:06;15.00;99.90
59660;DHT22;45534;52.690;6.268;2023-07-02T01:34:34;14.90;99.90
59660;DHT22;45534;52.690;6.268;2023-07-02T01:37:01;14.90;99.90
59660;DHT22;45534;52.690;6.268;2023-07-02T01:39:26;14.80;99.90
59660;DHT22;45534;52.690;6.268;2023-07-02T01:41:55;14.80;99.90
59660;DHT22;45534;52.690;6.268;2023-07-02T01:44:22;14.70;99.90
59660;DHT22;45534;52.690;6.268;2023-07-02T01:46:48;14.70;99.90
59660;DHT22;45534;52.690;6.268;2023-07-02T01:49:15;14.60;99.90
59660;DHT22;45534;52.690;6.268;2023-07-02T01:51:45;14.60;99.90
59660;DHT22;45534;52.690;6.268;2023-07-02T01:54:11;14.50;99.90
59660;DHT22;45534;52.690;6.268;2023-07-02T01:56:36;14.50;99.90
59660;DHT22;45534;52.690;6.268;2023-07-02T01:59:02;14.40;99.90
59660;DHT22;45534;52.690;6.268;2023-07-02T02:01:27;14.40;99.90
59660;DHT22;45534;52.690;6.268;2023-07-02T02:03:53;14.30;99.90
59660;DHT22;45534;52.690;6.268;2023-07-02T02:06:19;14.30;99.90
59660;DHT22;45534;52.690;6.268;2023-07-02T02:08:44;14.30;99.90
59660;DHT22;45534;52.690;6.268;2023-07-02T02:11:10;14.30;99.90
59660;DHT22;45534;52.690;6.268;2023-07-02T02:13:36;14.20;99.90
59660;DHT22;45534;52.690;6.268;2023-07-02T02:16:01;14.20;99.90
59660;DHT22;45534;52.690;6.268;2023-07-02T02:18:27;14.20;99.90
59660;DHT22;45534;52.690;6.268;2023-07-02T02:20:53;14.10;99.90
59660;DHT22;45534;52.690;6.268;2023-07-02T02:23:18;14.10;99.90
59660;DHT22;45534;52.690;6.268;2023-07-02T02:25:44;14.10;99.90
59660;DHT22;45534;52.690;6.268;2023-07-02T02:28:13;14.10;99.90
59660;DHT22;45534;52.690;6.268;2023-07-02T02:30:38;14.10;99.90
59660;DHT22;45534;52.690;6.268;2023-07-02T02:33:04;14.00;99.90
59660;DHT22;45534;52.690;6.268;2023-07-02T02:35:30;14.00;99.90
59660;DHT22;45534;52.690;6.268;2023-07-02T02:37:55;14.00;99.90
59660;DHT22;45534;52.690;6.268;2023-07-02T02:40:21;14.00;99.90
59660;DHT22;45534;52.690;6.268;2023-07-02T02:42:47;14.00;99.90
59660;DHT22;45534;52.690;6.268;2023-07-02T02:45:12;14.00;99.90
59660;DHT22;45534;52.690;6.268;2023-07-02T02:47:38;13.90;99.90
59660;DHT22;45534;52.690;6.268;2023-07-02T02:50:05;13.90;99.90
59660;DHT22;45534;52.690;6.268;2023-07-02T02:52:30;13.90;99.90
59660;DHT22;45534;52.690;6.268;2023-07-02T02:54:56;13.90;99.90
59660;DHT22;45534;52.690;6.268;2023-07-02T02:57:22;13.90;99.90
59660;DHT22;45534;52.690;6.268;2023-07-02T02:59:47;13.80;99.90
59660;DHT22;45534;52.690;6.268;2023-07-02T03:02:13;13.80;99.90
59660;DHT22;45534;52.690;6.268;2023-07-02T03:04:39;13.80;99.90
59660;DHT22;45534;52.690;6.268;2023-07-02T03:07:06;13.80;99.90
59660;DHT22;45534;52.690;6.268;2023-07-02T03:09:33;13.80;99.90
59660;DHT22;45534;52.690;6.268;2023-07-02T03:11:59;13.80;99.90
59660;DHT22;45534;52.690;6.268;2023-07-02T03:14:24;13.80;99.90
59660;DHT22;45534;52.690;6.268;2023-07-02T03:16:50;13.80;99.90
59660;DHT22;45534;52.690;6.268;2023-07-02T03:19:16;13.80;99.90
59660;DHT22;45534;52.690;6.268;2023-07-02T03:21:45;13.80;99.90
59660;DHT22;45534;52.690;6.268;2023-07-02T03:24:10;13.90;99.90
59660;DHT22;45534;52.690;6.268;2023-07-02T03:26:40;13.80;99.90
59660;DHT22;45534;52.690;6.268;2023-07-02T03:29:06;13.90;99.90
59660;DHT22;45534;52.690;6.268;2023-07-02T03:31:32;13.80;99.90
59660;DHT22;45534;52.690;6.268;2023-07-02T03:33:58;13.80;99.90
59660;DHT22;45534;52.690;6.268;2023-07-02T03:36:23;13.90;99.90
59660;DHT22;45534;52.690;6.268;2023-07-02T03:38:49;13.80;99.90
59660;DHT22;45534;52.690;6.268;2023-07-02T03:41:14;13.90;99.90
59660;DHT22;45534;52.690;6.268;2023-07-02T03:43:40;13.90;99.90
59660;DHT22;45534;52.690;6.268;2023-07-02T03:46:06;13.90;99.90
59660;DHT22;45534;52.690;6.268;2023-07-02T03:48:32;13.90;99.90
59660;DHT22;45534;52.690;6.268;2023-07-02T03:50:57;13.90;99.90
59660;DHT22;45534;52.690;6.268;2023-07-02T03:53:23;13.90;99.90
59660;DHT22;45534;52.690;6.268;2023-07-02T03:55:48;13.90;99.90
59660;DHT22;45534;52.690;6.268;2023-07-02T03:58:14;13.90;99.90
59660;DHT22;45534;52.690;6.268;2023-07-02T04:00:40;13.90;99.90
59660;DHT22;45534;52.690;6.268;2023-07-02T04:03:07;13.90;99.90
59660;DHT22;45534;52.690;6.268;2023-07-02T04:05:32;13.90;99.90
59660;DHT22;45534;52.690;6.268;2023-07-02T04:07:58;13.90;99.90
59660;DHT22;45534;52.690;6.268;2023-07-02T04:10:25;13.90;99.90
59660;DHT22;45534;52.690;6.268;2023-07-02T04:12:50;14.00;99.90
59660;DHT22;45534;52.690;6.268;2023-07-02T04:15:16;14.00;99.90
59660;DHT22;45534;52.690;6.268;2023-07-02T04:17:42;14.00;99.90
59660;DHT22;45534;52.690;6.268;2023-07-02T04:20:08;14.00;99.90
59660;DHT22;45534;52.690;6.268;2023-07-02T04:22:33;14.00;99.90
59660;DHT22;45534;52.690;6.268;2023-07-02T04:24:59;14.10;99.90
59660;DHT22;45534;52.690;6.268;2023-07-02T04:27:25;14.10;99.90
59660;DHT22;45534;52.690;6.268;2023-07-02T04:29:52;14.10;99.90
59660;DHT22;45534;52.690;6.268;2023-07-02T04:32:18;14.10;99.90
59660;DHT22;45534;52.690;6.268;2023-07-02T04:34:44;14.10;99.90
59660;DHT22;45534;52.690;6.268;2023-07-02T04:37:10;14.20;99.90
59660;DHT22;45534;52.690;6.268;2023-07-02T04:39:35;14.20;99.90
59660;DHT22;45534;52.690;6.268;2023-07-02T04:42:01;14.20;99.90
59660;DHT22;45534;52.690;6.268;2023-07-02T04:44:27;14.30;99.90
59660;DHT22;45534;52.690;6.268;2023-07-02T04:47:01;14.30;99.90
59660;DHT22;45534;52.690;6.268;2023-07-02T04:49:27;14.40;99.90
59660;DHT22;45534;52.690;6.268;2023-07-02T04:51:53;14.50;99.90
59660;DHT22;45534;52.690;6.268;2023-07-02T04:54:20;14.50;99.90
59660;DHT22;45534;52.690;6.268;2023-07-02T04:56:46;14.60;99.90
59660;DHT22;45534;52.690;6.268;2023-07-02T04:59:14;14.60;99.90
59660;DHT22;45534;52.690;6.268;2023-07-02T05:01:39;14.60;99.90
59660;DHT22;45534;52.690;6.268;2023-07-02T05:04:05;14.70;99.90
59660;DHT22;45534;52.690;6.268;2023-07-02T05:06:31;14.70;99.90
59660;DHT22;45534;52.690;6.268;2023-07-02T05:08:57;14.80;99.90
59660;DHT22;45534;52.690;6.268;2023-07-02T05:11:22;14.90;99.90
59660;DHT22;45534;52.690;6.268;2023-07-02T05:13:48;14.90;99.90
59660;DHT22;45534;52.690;6.268;2023-07-02T05:16:14;15.00;99.90
59660;DHT22;45534;52.690;6.268;2023-07-02T05:18:40;15.00;99.90
59660;DHT22;45534;52.690;6.268;2023-07-02T05:21:06;15.10;99.90
59660;DHT22;45534;52.690;6.268;2023-07-02T05:23:32;15.10;99.90
59660;DHT22;45534;52.690;6.268;2023-07-02T05:25:57;15.10;99.90
59660;DHT22;45534;52.690;6.268;2023-07-02T05:28:24;15.20;99.90
59660;DHT22;45534;52.690;6.268;2023-07-02T05:30:50;15.20;99.90
59660;DHT22;45534;52.690;6.268;2023-07-02T05:33:16;15.30;99.90
59660;DHT22;45534;52.690;6.268;2023-07-02T05:35:41;15.40;99.90
59660;DHT22;45534;52.690;6.268;2023-07-02T05:38:07;15.40;99.90
59660;DHT22;45534;52.690;6.268;2023-07-02T05:40:33;15.40;99.90
59660;DHT22;45534;52.690;6.268;2023-07-02T05:42:58;15.50;99.90
59660;DHT22;45534;52.690;6.268;2023-07-02T05:45:24;15.50;99.90
59660;DHT22;45534;52.690;6.268;2023-07-02T05:47:50;15.60;99.90
59660;DHT22;45534;52.690;6.268;2023-07-02T05:50:15;15.60;99.90
59660;DHT22;45534;52.690;6.268;2023-07-02T05:52:41;15.70;99.90
59660;DHT22;45534;52.690;6.268;2023-07-02T05:55:10;15.70;99.90
59660;DHT22;45534;52.690;6.268;2023-07-02T05:57:37;15.80;99.90
59660;DHT22;45534;52.690;6.268;2023-07-02T06:00:04;15.80;99.90
59660;DHT22;45534;52.690;6.268;2023-07-02T06:02:31;15.90;99.90
59660;DHT22;45534;52.690;6.268;2023-07-02T06:04:59;15.90;99.90
59660;DHT22;45534;52.690;6.268;2023-07-02T06:07:27;16.00;99.90
59660;DHT22;45534;52.690;6.268;2023-07-02T06:09:53;16.10;99.90
59660;DHT22;45534;52.690;6.268;2023-07-02T06:12:19;16.10;99.90
59660;DHT22;45534;52.690;6.268;2023-07-02T06:14:46;16.10;99.90
59660;DHT22;45534;52.690;6.268;2023-07-02T06:17:11;16.20;99.90
59660;DHT22;45534;52.690;6.268;2023-07-02T06:19:37;16.30;99.90
59660;DHT22;45534;52.690;6.268;2023-07-02T06:22:04;16.30;99.90
59660;DHT22;45534;52.690;6.268;2023-07-02T06:24:30;16.30;99.90
59660;DHT22;45534;52.690;6.268;2023-07-02T06:26:56;16.40;99.90
59660;DHT22;45534;52.690;6.268;2023-07-02T06:29:23;16.40;99.90
59660;DHT22;45534;52.690;6.268;2023-07-02T06:31:49;16.50;99.90
59660;DHT22;45534;52.690;6.268;2023-07-02T06:34:15;16.60;99.90
59660;DHT22;45534;52.690;6.268;2023-07-02T06:36:41;16.60;99.90
59660;DHT22;45534;52.690;6.268;2023-07-02T06:39:07;16.70;99.90
59660;DHT22;45534;52.690;6.268;2023-07-02T06:41:35;16.80;99.90
59660;DHT22;45534;52.690;6.268;2023-07-02T06:44:01;16.80;99.90
59660;DHT22;45534;52.690;6.268;2023-07-02T06:46:26;16.90;99.90
59660;DHT22;45534;52.690;6.268;2023-07-02T06:48:52;16.90;99.90
59660;DHT22;45534;52.690;6.268;2023-07-02T06:51:18;17.00;99.90
59660;DHT22;45534;52.690;6.268;2023-07-02T06:53:45;17.10;99.90
59660;DHT22;45534;52.690;6.268;2023-07-02T06:56:11;17.10;99.90
59660;DHT22;45534;52.690;6.268;2023-07-02T06:58:36;17.00;99.90
59660;DHT22;45534;52.690;6.268;2023-07-02T07:01:02;17.00;99.90
59660;DHT22;45534;52.690;6.268;2023-07-02T07:03:28;17.20;99.90
59660;DHT22;45534;52.690;6.268;2023-07-02T07:05:55;17.30;99.90
59660;DHT22;45534;52.690;6.268;2023-07-02T07:08:21;17.30;99.90
59660;DHT22;45534;52.690;6.268;2023-07-02T07:10:47;17.30;99.90
59660;DHT22;45534;52.690;6.268;2023-07-02T07:13:13;17.30;99.90
59660;DHT22;45534;52.690;6.268;2023-07-02T07:15:38;17.20;99.90
59660;DHT22;45534;52.690;6.268;2023-07-02T07:18:04;17.30;99.90
59660;DHT22;45534;52.690;6.268;2023-07-02T07:20:30;17.20;99.90
59660;DHT22;45534;52.690;6.268;2023-07-02T07:22:56;17.30;99.90
59660;DHT22;45534;52.690;6.268;2023-07-02T07:25:23;17.40;99.90
59660;DHT22;45534;52.690;6.268;2023-07-02T07:27:48;17.40;99.90
59660;DHT22;45534;52.690;6.268;2023-07-02T07:30:14;17.50;99.90
59660;DHT22;45534;52.690;6.268;2023-07-02T07:32:41;17.50;99.90
59660;DHT22;45534;52.690;6.268;2023-07-02T07:35:07;17.40;99.90
59660;DHT22;45534;52.690;6.268;2023-07-02T07:37:33;17.20;99.90
59660;DHT22;45534;52.690;6.268;2023-07-02T07:39:58;17.10;99.90
59660;DHT22;45534;52.690;6.268;2023-07-02T07:42:24;17.10;99.90
59660;DHT22;45534;52.690;6.268;2023-07-02T07:44:50;17.10;99.90
59660;DHT22;45534;52.690;6.268;2023-07-02T07:47:15;17.20;99.90
59660;DHT22;45534;52.690;6.268;2023-07-02T07:49:41;17.40;99.90
59660;DHT22;45534;52.690;6.268;2023-07-02T07:52:07;17.60;99.90
59660;DHT22;45534;52.690;6.268;2023-07-02T07:54:33;17.70;99.90
59660;DHT22;45534;52.690;6.268;2023-07-02T07:57:03;17.70;99.90
59660;DHT22;45534;52.690;6.268;2023-07-02T07:59:29;17.90;99.90
59660;DHT22;45534;52.690;6.268;2023-07-02T08:01:55;18.10;99.90
59660;DHT22;45534;52.690;6.268;2023-07-02T08:04:21;18.20;99.90
59660;DHT22;45534;52.690;6.268;2023-07-02T08:06:46;18.20;99.90
59660;DHT22;45534;52.690;6.268;2023-07-02T08:09:12;18.30;99.90
59660;DHT22;45534;52.690;6.268;2023-07-02T08:11:38;18.30;99.90
59660;DHT22;45534;52.690;6.268;2023-07-02T08:14:04;18.40;99.90
59660;DHT22;45534;52.690;6.268;2023-07-02T08:16:29;18.40;99.90
59660;DHT22;45534;52.690;6.268;2023-07-02T08:18:55;18.60;99.90
59660;DHT22;45534;52.690;6.268;2023-07-02T08:21:20;18.60;99.90
59660;DHT22;45534;52.690;6.268;2023-07-02T08:23:46;18.40;99.90
59660;DHT22;45534;52.690;6.268;2023-07-02T08:26:12;18.40;99.90
59660;DHT22;45534;52.690;6.268;2023-07-02T08:28:39;18.30;99.90
59660;DHT22;45534;52.690;6.268;2023-07-02T08:31:05;18.30;99.90
59660;DHT22;45534;52.690;6.268;2023-07-02T08:33:31;18.30;99.90
59660;DHT22;45534;52.690;6.268;2023-07-02T08:35:57;18.30;99.90
59660;DHT22;45534;52.690;6.268;2023-07-02T08:38:23;18.30;99.90
59660;DHT22;45534;52.690;6.268;2023-07-02T08:40:52;18.20;99.90
59660;DHT22;45534;52.690;6.268;2023-07-02T08:43:18;18.30;99.90
59660;DHT22;45534;52.690;6.268;2023-07-02T08:45:44;18.40;99.90
59660;DHT22;45534;52.690;6.268;2023-07-02T08:48:10;18.40;99.90
59660;DHT22;45534;52.690;6.268;2023-07-02T08:50:37;18.40;99.90
59660;DHT22;45534;52.690;6.268;2023-07-02T08:53:02;18.40;99.90
59660;DHT22;45534;52.690;6.268;2023-07-02T08:55:31;18.40;99.90
59660;DHT22;45534;52.690;6.268;2023-07-02T08:57:57;18.30;99.90
59660;DHT22;45534;52.690;6.268;2023-07-02T09:00:25;18.10;99.90
59660;DHT22;45534;52.690;6.268;2023-07-02T09:02:50;18.00;99.90
59660;DHT22;45534;52.690;6.268;2023-07-02T09:05:16;17.90;99.90
59660;DHT22;45534;52.690;6.268;2023-07-02T09:07:50;17.80;99.90
59660;DHT22;45534;52.690;6.268;2023-07-02T09:10:30;17.80;99.90
59660;DHT22;45534;52.690;6.268;2023-07-02T09:13:06;17.90;99.90
59660;DHT22;45534;52.690;6.268;2023-07-02T09:15:39;17.90;99.90
59660;DHT22;45534;52.690;6.268;2023-07-02T09:18:19;17.90;99.90
59660;DHT22;45534;52.690;6.268;2023-07-02T09:20:45;17.80;99.90
59660;DHT22;45534;52.690;6.268;2023-07-02T09:23:11;17.80;99.90
59660;DHT22;45534;52.690;6.268;2023-07-02T09:25:38;17.70;99.90
59660;DHT22;45534;52.690;6.268;2023-07-02T09:28:21;17.70;99.90
59660;DHT22;45534;52.690;6.268;2023-07-02T09:30:53;17.60;99.90
59660;DHT22;45534;52.690;6.268;2023-07-02T09:33:19;17.70;99.90
59660;DHT22;45534;52.690;6.268;2023-07-02T09:35:44;17.90;99.90
59660;DHT22;45534;52.690;6.268;2023-07-02T09:38:13;18.10;99.90
59660;DHT22;45534;52.690;6.268;2023-07-02T09:40:50;18.40;99.90
59660;DHT22;45534;52.690;6.268;2023-07-02T09:43:16;18.60;99.90
59660;DHT22;45534;52.690;6.268;2023-07-02T09:45:44;18.90;99.90
59660;DHT22;45534;52.690;6.268;2023-07-02T09:48:13;18.90;99.90
59660;DHT22;45534;52.690;6.268;2023-07-02T09:50:41;18.80;99.90
59660;DHT22;45534;52.690;6.268;2023-07-02T09:53:07;18.60;99.90
59660;DHT22;45534;52.690;6.268;2023-07-02T09:55:33;18.50;99.90
59660;DHT22;45534;52.690;6.268;2023-07-02T09:57:59;18.30;99.90
59660;DHT22;45534;52.690;6.268;2023-07-02T10:00:24;18.20;99.90
59660;DHT22;45534;52.690;6.268;2023-07-02T10:02:50;18.20;99.90
59660;DHT22;45534;52.690;6.268;2023-07-02T10:05:32;18.10;99.90
59660;DHT22;45534;52.690;6.268;2023-07-02T10:08:00;18.10;99.90
59660;DHT22;45534;52.690;6.268;2023-07-02T10:10:36;18.10;99.90
59660;DHT22;45534;52.690;6.268;2023-07-02T10:13:02;18.10;99.90
59660;DHT22;45534;52.690;6.268;2023-07-02T10:15:29;18.30;99.90
59660;DHT22;45534;52.690;6.268;2023-07-02T10:18:02;18.40;99.90
59660;DHT22;45534;52.690;6.268;2023-07-02T10:20:39;18.60;99.90
59660;DHT22;45534;52.690;6.268;2023-07-02T10:23:06;18.80;99.90
59660;DHT22;45534;52.690;6.268;2023-07-02T10:25:37;19.20;99.90
59660;DHT22;45534;52.690;6.268;2023-07-02T10:28:19;19.40;99.90
59660;DHT22;45534;52.690;6.268;2023-07-02T10:30:45;19.60;99.90
59660;DHT22;45534;52.690;6.268;2023-07-02T10:33:13;19.70;99.90
59660;DHT22;45534;52.690;6.268;2023-07-02T10:35:39;19.80;99.90
59660;DHT22;45534;52.690;6.268;2023-07-02T10:38:12;20.00;99.90
59660;DHT22;45534;52.690;6.268;2023-07-02T10:40:39;20.20;99.80
59660;DHT22;45534;52.690;6.268;2023-07-02T10:43:05;20.40;99.90
59660;DHT22;45534;52.690;6.268;2023-07-02T10:45:34;20.50;99.90
59660;DHT22;45534;52.690;6.268;2023-07-02T10:48:02;20.50;99.90
59660;DHT22;45534;52.690;6.268;2023-07-02T10:50:30;20.50;99.90
59660;DHT22;45534;52.690;6.268;2023-07-02T10:52:56;20.30;99.90
59660;DHT22;45534;52.690;6.268;2023-07-02T10:55:26;20.20;99.90
59660;DHT22;45534;52.690;6.268;2023-07-02T10:58:07;20.20;98.60
59660;DHT22;45534;52.690;6.268;2023-07-02T11:00:46;20.30;97.50
59660;DHT22;45534;52.690;6.268;2023-07-02T11:03:19;20.50;99.00
59660;DHT22;45534;52.690;6.268;2023-07-02T11:05:45;20.80;99.90
59660;DHT22;45534;52.690;6.268;2023-07-02T11:08:11;21.20;98.90
59660;DHT22;45534;52.690;6.268;2023-07-02T11:10:37;21.50;97.90
59660;DHT22;45534;52.690;6.268;2023-07-02T11:13:17;21.60;98.60
59660;DHT22;45534;52.690;6.268;2023-07-02T11:15:43;21.70;95.10
59660;DHT22;45534;52.690;6.268;2023-07-02T11:18:16;21.80;99.90
59660;DHT22;45534;52.690;6.268;2023-07-02T11:20:43;21.80;96.90
59660;DHT22;45534;52.690;6.268;2023-07-02T11:23:19;21.50;97.90
59660;DHT22;45534;52.690;6.268;2023-07-02T11:25:55;21.40;96.90
59660;DHT22;45534;52.690;6.268;2023-07-02T11:28:21;21.50;95.90
59660;DHT22;45534;52.690;6.268;2023-07-02T11:30:46;21.20;95.50
59660;DHT22;45534;52.690;6.268;2023-07-02T11:33:12;21.10;96.00
59660;DHT22;45534;52.690;6.268;2023-07-02T11:35:38;21.10;92.20
59660;DHT22;45534;52.690;6.268;2023-07-02T11:38:03;21.20;96.20
59660;DHT22;45534;52.690;6.268;2023-07-02T11:40:29;21.00;96.00
59660;DHT22;45534;52.690;6.268;2023-07-02T11:42:55;20.80;96.60
59660;DHT22;45534;52.690;6.268;2023-07-02T11:45:20;20.60;96.40
59660;DHT22;45534;52.690;6.268;2023-07-02T11:47:46;20.40;96.40
59660;DHT22;45534;52.690;6.268;2023-07-02T11:50:13;20.20;97.20
59660;DHT22;45534;52.690;6.268;2023-07-02T11:52:39;20.20;98.50
59660;DHT22;45534;52.690;6.268;2023-07-02T11:55:05;20.20;97.30
59660;DHT22;45534;52.690;6.268;2023-07-02T11:57:30;20.20;97.60
59660;DHT22;45534;52.690;6.268;2023-07-02T11:59:56;20.30;98.40
59660;DHT22;45534;52.690;6.268;2023-07-02T12:02:22;20.50;96.20
59660;DHT22;45534;52.690;6.268;2023-07-02T12:04:47;20.60;94.40
59660;DHT22;45534;52.690;6.268;2023-07-02T12:07:13;20.60;93.80
59660;DHT22;45534;52.690;6.268;2023-07-02T12:09:39;20.70;94.30
59660;DHT22;45534;52.690;6.268;2023-07-02T12:12:05;20.80;94.30
59660;DHT22;45534;52.690;6.268;2023-07-02T12:14:31;20.80;93.60
59660;DHT22;45534;52.690;6.268;2023-07-02T12:16:57;20.80;95.40
59660;DHT22;45534;52.690;6.268;2023-07-02T12:19:22;20.90;93.90
59660;DHT22;45534;52.690;6.268;2023-07-02T12:21:48;21.10;93.70
59660;DHT22;45534;52.690;6.268;2023-07-02T12:24:14;21.00;90.70
59660;DHT22;45534;52.690;6.268;2023-07-02T12:26:40;20.90;93.10
59660;DHT22;45534;52.690;6.268;2023-07-02T12:29:07;20.70;94.10
59660;DHT22;45534;52.690;6.268;2023-07-02T12:31:33;20.60;94.40
59660;DHT22;45534;52.690;6.268;2023-07-02T12:33:58;20.50;93.30
59660;DHT22;45534;52.690;6.268;2023-07-02T12:36:24;20.50;92.40
59660;DHT22;45534;52.690;6.268;2023-07-02T12:38:50;20.30;92.50
59660;DHT22;45534;52.690;6.268;2023-07-02T12:41:15;20.00;92.00
59660;DHT22;45534;52.690;6.268;2023-07-02T12:43:41;19.90;91.70
59660;DHT22;45534;52.690;6.268;2023-07-02T12:46:07;19.80;93.30
59660;DHT22;45534;52.690;6.268;2023-07-02T12:48:32;19.90;93.00
59660;DHT22;45534;52.690;6.268;2023-07-02T12:51:00;19.90;90.20
59660;DHT22;45534;52.690;6.268;2023-07-02T12:53:26;19.90;89.30
59660;DHT22;45534;52.690;6.268;2023-07-02T12:55:52;19.90;90.00
59660;DHT22;45534;52.690;6.268;2023-07-02T12:58:18;20.20;88.80
59660;DHT22;45534;52.690;6.268;2023-07-02T13:00:44;20.70;80.20
59660;DHT22;45534;52.690;6.268;2023-07-02T13:03:11;21.10;80.00
59660;DHT22;45534;52.690;6.268;2023-07-02T13:05:37;21.30;77.40
59660;DHT22;45534;52.690;6.268;2023-07-02T13:08:03;21.50;73.40
59660;DHT22;45534;52.690;6.268;2023-07-02T13:10:29;21.70;75.50
59660;DHT22;45534;52.690;6.268;2023-07-02T13:12:56;21.80;73.60
59660;DHT22;45534;52.690;6.268;2023-07-02T13:15:22;21.80;70.10
59660;DHT22;45534;52.690;6.268;2023-07-02T13:17:47;21.80;68.30
59660;DHT22;45534;52.690;6.268;2023-07-02T13:20:13;21.80;66.70
59660;DHT22;45534;52.690;6.268;2023-07-02T13:22:39;21.90;65.70
59660;DHT22;45534;52.690;6.268;2023-07-02T13:25:06;21.90;65.40
59660;DHT22;45534;52.690;6.268;2023-07-02T13:27:32;21.90;64.20
59660;DHT22;45534;52.690;6.268;2023-07-02T13:29:58;21.80;64.30
59660;DHT22;45534;52.690;6.268;2023-07-02T13:32:24;21.90;63.40
59660;DHT22;45534;52.690;6.268;2023-07-02T13:34:50;21.80;63.00
59660;DHT22;45534;52.690;6.268;2023-07-02T13:37:16;21.70;63.40
59660;DHT22;45534;52.690;6.268;2023-07-02T13:39:45;21.50;63.10
59660;DHT22;45534;52.690;6.268;2023-07-02T13:42:11;21.40;63.50
59660;DHT22;45534;52.690;6.268;2023-07-02T13:44:36;21.60;64.40
59660;DHT22;45534;52.690;6.268;2023-07-02T13:47:02;22.00;65.30
59660;DHT22;45534;52.690;6.268;2023-07-02T13:49:28;22.00;62.30
59660;DHT22;45534;52.690;6.268;2023-07-02T13:51:53;21.70;62.80
59660;DHT22;45534;52.690;6.268;2023-07-02T13:54:19;21.30;63.50
59660;DHT22;45534;52.690;6.268;2023-07-02T13:56:46;21.00;64.30
59660;DHT22;45534;52.690;6.268;2023-07-02T13:59:12;20.90;65.70
59660;DHT22;45534;52.690;6.268;2023-07-02T14:01:38;20.60;66.60
59660;DHT22;45534;52.690;6.268;2023-07-02T14:04:04;20.40;68.70
59660;DHT22;45534;52.690;6.268;2023-07-02T14:06:30;20.60;70.60
59660;DHT22;45534;52.690;6.268;2023-07-02T14:08:56;20.80;71.30
59660;DHT22;45534;52.690;6.268;2023-07-02T14:11:23;21.00;66.30
59660;DHT22;45534;52.690;6.268;2023-07-02T14:13:49;21.10;67.80
59660;DHT22;45534;52.690;6.268;2023-07-02T14:16:15;20.90;67.20
59660;DHT22;45534;52.690;6.268;2023-07-02T14:18:41;20.80;66.60
59660;DHT22;45534;52.690;6.268;2023-07-02T14:21:07;20.60;66.30
59660;DHT22;45534;52.690;6.268;2023-07-02T14:23:33;20.50;66.20
59660;DHT22;45534;52.690;6.268;2023-07-02T14:25:58;20.50;67.40
59660;DHT22;45534;52.690;6.268;2023-07-02T14:28:25;20.70;68.30
59660;DHT22;45534;52.690;6.268;2023-07-02T14:30:58;20.70;68.10
59660;DHT22;45534;52.690;6.268;2023-07-02T14:33:25;20.80;69.60
59660;DHT22;45534;52.690;6.268;2023-07-02T14:35:51;20.90;66.90
59660;DHT22;45534;52.690;6.268;2023-07-02T14:38:16;20.80;66.00
59660;DHT22;45534;52.690;6.268;2023-07-02T14:40:42;20.70;70.00
59660;DHT22;45534;52.690;6.268;2023-07-02T14:43:08;20.70;69.80
59660;DHT22;45534;52.690;6.268;2023-07-02T14:45:33;20.70;67.70
59660;DHT22;45534;52.690;6.268;2023-07-02T14:47:59;20.70;70.30
59660;DHT22;45534;52.690;6.268;2023-07-02T14:50:26;20.70;71.00
59660;DHT22;45534;52.690;6.268;2023-07-02T14:52:52;20.60;70.80
59660;DHT22;45534;52.690;6.268;2023-07-02T14:55:18;20.50;70.10
59660;DHT22;45534;52.690;6.268;2023-07-02T14:57:44;20.40;70.10
59660;DHT22;45534;52.690;6.268;2023-07-02T15:00:10;20.30;69.60
59660;DHT22;45534;52.690;6.268;2023-07-02T15:02:39;20.20;69.30
59660;DHT22;45534;52.690;6.268;2023-07-02T15:05:04;20.00;67.90
59660;DHT22;45534;52.690;6.268;2023-07-02T15:07:30;19.80;67.60
59660;DHT22;45534;52.690;6.268;2023-07-02T15:09:56;19.80;70.90
59660;DHT22;45534;52.690;6.268;2023-07-02T15:12:22;19.80;71.30
59660;DHT22;45534;52.690;6.268;2023-07-02T15:14:47;19.90;71.30
59660;DHT22;45534;52.690;6.268;2023-07-02T15:17:13;20.10;72.40
59660;DHT22;45534;52.690;6.268;2023-07-02T15:19:39;20.20;71.50
59660;DHT22;45534;52.690;6.268;2023-07-02T15:22:04;20.20;71.20
59660;DHT22;45534;52.690;6.268;2023-07-02T15:24:30;20.10;72.00
59660;DHT22;45534;52.690;6.268;2023-07-02T15:26:56;20.10;73.30